Time;durP1;ratioP1;P1;durP2;ratioP2;P2;SDS_P1;SDS_P2;PMS_P1;PMS_P2;Temp;Humidity;BMP_temperature;BMP_pressure;BME280_temperature;BME280_humidity;BME280_pressure;Samples;Min_cycle;Max_cycle;Signal;HPM_P1;HPM_P2
2021/09/12 00:01:34;;;;;;;26.17;20.87;;;;;;;19.79;79.47;101180.09;5059761;28;20220;-69
2021/09/12 00:04:00;;;;;;;23.57;19.43;;;;;;;19.83;78.31;101173.84;5059408;28;20189;-68
2021/09/12 00:06:26;;;;;;;21.70;18.80;;;;;;;19.67;79.29;101173.31;5059395;28;20213;-66
2021/09/12 00:08:51;;;;;;;23.50;20.20;;;;;;;19.66;79.52;101173.31;5060003;28;20184;-66
2021/09/12 00:11:17;;;;;;;25.80;19.23;;;;;;;19.58;79.35;101170.84;5059552;28;20420;-67
2021/09/12 00:13:42;;;;;;;23.07;19.90;;;;;;;19.71;79.54;101171.44;5059318;28;20180;-66
2021/09/12 00:16:07;;;;;;;25.40;18.10;;;;;;;19.62;79.09;101169.00;5059757;28;20437;-66
2021/09/12 00:18:33;;;;;;;23.70;19.60;;;;;;;19.48;79.77;101170.19;5059327;28;20181;-66
2021/09/12 00:20:58;;;;;;;21.60;19.20;;;;;;;19.71;78.75;101160.88;5059112;28;20191;-66
2021/09/12 00:23:23;;;;;;;22.70;19.10;;;;;;;19.52;80.15;101161.28;5059262;28;20178;-66
2021/09/12 00:25:49;;;;;;;22.63;18.93;;;;;;;19.76;78.92;101164.28;5059070;28;20233;-66
2021/09/12 00:28:14;;;;;;;24.47;18.90;;;;;;;19.55;79.41;101159.44;5058888;28;20188;-66
2021/09/12 00:30:40;;;;;;;26.50;21.23;;;;;;;19.92;78.10;101156.06;5059261;28;20249;-67
2021/09/12 00:33:05;;;;;;;22.50;19.23;;;;;;;19.46;79.65;101149.94;5059094;28;20573;-66
2021/09/12 00:35:30;;;;;;;25.00;21.60;;;;;;;19.82;78.65;101152.72;5058857;28;20449;-68
2021/09/12 00:37:56;;;;;;;23.80;20.10;;;;;;;19.43;80.16;101152.63;5059305;28;20177;-67
2021/09/12 00:40:22;;;;;;;22.90;20.50;;;;;;;19.55;79.63;101143.59;5058683;28;20468;-67
2021/09/12 00:42:48;;;;;;;24.13;20.20;;;;;;;19.68;78.84;101145.06;5058703;28;20169;-67
2021/09/12 00:45:13;;;;;;;24.40;21.00;;;;;;;19.64;79.07;101136.31;5058826;28;20841;-68
2021/09/12 00:47:39;;;;;;;28.00;22.13;;;;;;;19.63;79.56;101144.28;5058492;28;20199;-67
2021/09/12 00:50:05;;;;;;;27.13;22.60;;;;;;;19.79;78.67;101142.19;5057801;28;20264;-69
2021/09/12 00:52:32;;;;;;;25.70;20.27;;;;;;;19.77;78.31;101131.66;5058932;28;20571;-67
2021/09/12 00:54:59;;;;;;;25.00;21.73;;;;;;;19.79;78.35;101145.69;5057575;28;20439;-65
2021/09/12 00:57:25;;;;;;;24.67;21.10;;;;;;;19.27;80.32;101152.09;5040920;28;20445;-66
2021/09/12 00:59:51;;;;;;;28.53;24.17;;;;;;;19.51;79.20;101148.06;5058814;28;20412;-66
2021/09/12 01:02:18;;;;;;;24.93;21.17;;;;;;;19.48;79.36;101154.31;5057685;28;20268;-65
2021/09/12 01:04:43;;;;;;;26.53;22.17;;;;;;;19.41;79.62;101157.97;5058360;28;20516;-64
2021/09/12 01:07:09;;;;;;;30.63;22.20;;;;;;;19.42;79.30;101158.84;5058459;28;20500;-64
2021/09/12 01:09:36;;;;;;;28.47;23.13;;;;;;;19.54;79.23;101155.94;5057646;28;20165;-65
2021/09/12 01:12:02;;;;;;;28.30;21.93;;;;;;;19.56;79.10;101158.56;5058075;28;20559;-66
2021/09/12 01:14:29;;;;;;;29.63;23.07;;;;;;;19.39;80.19;101153.59;5058658;28;20420;-65
2021/09/12 01:16:55;;;;;;;27.17;23.07;;;;;;;19.32;80.22;101145.81;5058304;28;20243;-66
2021/09/12 01:19:20;;;;;;;26.63;22.97;;;;;;;19.31;79.75;101146.72;5058268;28;20801;-69
2021/09/12 01:21:46;;;;;;;33.90;23.60;;;;;;;19.67;78.81;101148.59;5058557;28;20180;-68
2021/09/12 01:24:12;;;;;;;28.20;22.53;;;;;;;19.45;79.33;101146.41;5057222;28;20189;-67
2021/09/12 01:26:37;;;;;;;28.20;24.13;;;;;;;19.75;78.40;101141.38;5057912;28;20210;-67
2021/09/12 01:29:03;;;;;;;29.70;23.37;;;;;;;19.55;78.96;101154.16;5057761;28;20422;-68
2021/09/12 01:31:30;;;;;;;26.30;23.03;;;;;;;19.72;78.11;101143.25;5057989;28;20178;-65
2021/09/12 01:33:57;;;;;;;32.53;24.40;;;;;;;19.38;79.16;101154.53;5057799;28;20197;-66
2021/09/12 01:36:23;;;;;;;30.47;24.00;;;;;;;19.38;79.78;101147.47;5061783;28;20529;-66
2021/09/12 01:38:48;;;;;;;27.90;23.80;;;;;;;19.48;79.56;101149.03;5065060;28;20412;-66
2021/09/12 01:41:13;;;;;;;31.40;23.20;;;;;;;19.63;79.13;101146.94;5065017;28;20208;-66
2021/09/12 01:43:55;;;;;;;31.93;24.17;;;;;;;19.56;79.32;101142.69;5060588;28;20256;-65
2021/09/12 01:46:21;;;;;;;36.90;24.60;;;;;;;19.47;79.42;101136.69;5057230;28;20661;-66
2021/09/12 01:48:47;;;;;;;30.00;25.10;;;;;;;19.55;79.40;101130.38;5057881;28;20424;-66
2021/09/12 01:51:13;;;;;;;28.50;23.73;;;;;;;19.38;79.98;101141.31;5057129;28;20177;-65
2021/09/12 01:53:39;;;;;;;28.07;23.87;;;;;;;19.63;78.44;101131.06;5057756;28;20260;-65
2021/09/12 01:56:04;;;;;;;33.53;25.23;;;;;;;19.53;78.96;101140.97;5058180;28;20859;-65
2021/09/12 01:58:30;;;;;;;28.90;24.20;;;;;;;19.63;78.88;101134.59;5057740;28;20260;-65
2021/09/12 02:00:56;;;;;;;30.00;24.87;;;;;;;19.46;78.81;101134.94;5057828;28;20531;-64
2021/09/12 02:03:21;;;;;;;29.43;23.30;;;;;;;19.52;78.81;101141.88;5057955;28;20539;-65
2021/09/12 02:05:47;;;;;;;29.50;24.20;;;;;;;19.50;78.63;101141.91;5057433;28;20460;-66
2021/09/12 02:08:12;;;;;;;30.80;24.67;;;;;;;19.59;78.46;101142.63;5057745;28;20170;-67
2021/09/12 02:10:38;;;;;;;31.10;26.70;;;;;;;19.71;78.25;101133.56;5057907;28;20190;-66
2021/09/12 02:13:03;;;;;;;32.50;26.10;;;;;;;19.51;78.76;101146.31;5057562;28;20219;-65
2021/09/12 02:15:28;;;;;;;31.03;25.93;;;;;;;19.57;78.76;101147.09;5057411;28;20169;-66
2021/09/12 02:17:54;;;;;;;29.40;23.33;;;;;;;19.33;79.75;101144.88;5058204;28;20178;-66
2021/09/12 02:20:19;;;;;;;31.83;25.30;;;;;;;19.48;79.01;101151.66;5061339;28;20178;-66
2021/09/12 02:22:45;;;;;;;33.57;26.07;;;;;;;19.52;78.93;101145.41;5061314;28;20484;-67
2021/09/12 02:25:10;;;;;;;36.97;27.67;;;;;;;19.77;78.18;101150.16;5061472;28;20189;-66
2021/09/12 02:27:35;;;;;;;33.23;27.30;;;;;;;19.49;78.81;101149.88;5061346;28;20519;-67
2021/09/12 02:30:01;;;;;;;32.77;25.33;;;;;;;19.53;78.98;101144.47;5060375;28;20169;-66
2021/09/12 02:32:27;;;;;;;42.03;28.13;;;;;;;19.47;79.47;101146.38;5061710;28;20154;-67
2021/09/12 02:34:52;;;;;;;38.00;29.10;;;;;;;19.10;80.96;101148.00;5060302;28;20431;-66
2021/09/12 02:37:18;;;;;;;33.70;28.47;;;;;;;19.37;79.90;101145.72;5061128;28;20257;-68
2021/09/12 02:39:43;;;;;;;38.33;27.87;;;;;;;19.76;77.84;101142.25;5061377;28;20178;-68
2021/09/12 02:42:08;;;;;;;33.07;26.40;;;;;;;19.76;78.41;101143.13;5060996;28;20200;-70
2021/09/12 02:44:34;;;;;;;34.17;27.53;;;;;;;19.27;79.55;101146.81;5061795;28;20561;-68
2021/09/12 02:46:59;;;;;;;38.57;27.87;;;;;;;19.27;80.26;101155.59;5063872;28;20355;-65
2021/09/12 02:49:24;;;;;;;36.10;27.90;;;;;;;19.51;79.11;101158.63;5064605;28;20169;-66
2021/09/12 02:51:50;;;;;;;34.00;26.80;;;;;;;19.64;78.72;101154.84;5063889;28;20182;-66
2021/09/12 02:54:15;;;;;;;35.97;25.80;;;;;;;19.40;79.16;101161.50;5063056;28;20172;-67
2021/09/12 02:56:40;;;;;;;36.77;28.03;;;;;;;19.66;78.86;101165.38;5062603;28;20423;-66
2021/09/12 02:59:05;;;;;;;34.90;27.50;;;;;;;19.71;78.25;101168.78;5061139;28;20308;-65
2021/09/12 03:01:31;;;;;;;34.20;26.57;;;;;;;19.49;79.10;101171.91;5061248;28;20269;-65
2021/09/12 03:03:56;;;;;;;33.97;28.30;;;;;;;19.58;78.22;101170.84;5060572;28;20185;-65
2021/09/12 03:06:21;;;;;;;35.63;27.87;;;;;;;19.41;79.63;101168.53;5061632;28;20571;-68
2021/09/12 03:08:47;;;;;;;37.90;28.57;;;;;;;19.62;78.64;101161.06;5063650;28;20516;-67
2021/09/12 03:11:12;;;;;;;36.10;27.87;;;;;;;19.57;78.53;101163.81;5063218;28;20495;-66
2021/09/12 03:13:37;;;;;;;35.07;26.27;;;;;;;19.73;78.51;101164.34;5062968;28;20482;-66
2021/09/12 03:16:03;;;;;;;36.57;28.60;;;;;;;19.53;78.92;101163.00;5061283;28;20192;-67
2021/09/12 03:18:28;;;;;;;33.23;26.17;;;;;;;19.45;78.89;101167.56;5060454;28;20558;-66
2021/09/12 03:20:54;;;;;;;34.47;27.80;;;;;;;19.36;79.21;101157.19;5059633;28;20517;-66
2021/09/12 03:23:19;;;;;;;32.50;27.20;;;;;;;19.60;77.68;101157.59;5060797;28;20517;-65
2021/09/12 03:25:44;;;;;;;37.67;28.70;;;;;;;19.67;77.60;101156.53;5060153;28;20206;-66
2021/09/12 03:28:10;;;;;;;38.20;28.00;;;;;;;19.57;77.91;101157.66;5060288;28;20539;-67
2021/09/12 03:30:35;;;;;;;36.63;28.73;;;;;;;19.27;78.70;101152.97;5060631;28;20169;-66
2021/09/12 03:33:00;;;;;;;39.33;29.27;;;;;;;19.31;78.69;101151.16;5060339;28;20178;-68
2021/09/12 03:35:26;;;;;;;40.87;29.37;;;;;;;19.16;79.05;101150.53;5060003;28;20176;-68
2021/09/12 03:37:51;;;;;;;41.47;30.00;;;;;;;19.29;78.62;101153.78;5060238;28;20180;-65
2021/09/12 03:40:16;;;;;;;38.57;30.50;;;;;;;18.98;79.68;101154.41;5060024;28;20182;-66
2021/09/12 03:42:42;;;;;;;40.33;29.27;;;;;;;19.11;78.93;101149.75;5060007;28;20477;-68
2021/09/12 03:45:07;;;;;;;38.27;28.83;;;;;;;19.22;78.37;101152.19;5060165;28;20165;-66
2021/09/12 03:47:33;;;;;;;38.80;30.03;;;;;;;19.25;78.40;101159.19;5059818;28;20192;-66
2021/09/12 03:49:58;;;;;;;35.60;28.13;;;;;;;19.24;78.31;101152.16;5059943;28;20181;-66
2021/09/12 03:52:23;;;;;;;42.40;29.40;;;;;;;19.05;79.02;101154.28;5060402;28;20216;-66
2021/09/12 03:54:49;;;;;;;43.20;31.43;;;;;;;19.15;78.81;101148.78;5059619;28;20531;-66
2021/09/12 03:57:14;;;;;;;44.93;30.20;;;;;;;18.98;78.83;101148.22;5059466;28;20177;-66
2021/09/12 03:59:39;;;;;;;43.47;29.73;;;;;;;19.17;78.73;101148.75;5060321;28;20223;-65
2021/09/12 04:02:05;;;;;;;41.47;29.07;;;;;;;19.17;78.30;101149.63;5059735;28;20173;-65
2021/09/12 04:04:30;;;;;;;46.10;32.37;;;;;;;18.80;79.76;101155.56;5059483;28;20205;-65
2021/09/12 04:06:55;;;;;;;38.80;31.03;;;;;;;19.03;78.93;101159.59;5060010;28;20200;-65
2021/09/12 04:09:20;;;;;;;42.70;31.20;;;;;;;18.86;79.65;101154.56;5059443;28;20260;-65
2021/09/12 04:11:46;;;;;;;50.23;31.43;;;;;;;18.80;80.16;101158.22;5059487;28;20252;-65
2021/09/12 04:14:11;;;;;;;40.33;29.23;;;;;;;18.83;79.74;101155.53;5059744;28;20308;-65
2021/09/12 04:16:36;;;;;;;41.60;30.60;;;;;;;18.90;79.28;101158.06;5059238;28;20188;-65
2021/09/12 04:19:02;;;;;;;40.60;30.10;;;;;;;18.68;80.00;101159.28;5059353;28;20180;-65
2021/09/12 04:21:28;;;;;;;39.43;29.77;;;;;;;18.84;79.27;101151.97;5060145;28;20423;-67
2021/09/12 04:23:53;;;;;;;37.80;29.40;;;;;;;18.99;78.84;101161.41;5059121;28;20208;-65
2021/09/12 04:26:18;;;;;;;41.07;30.67;;;;;;;18.79;79.08;101159.09;5059236;28;20246;-66
2021/09/12 04:28:43;;;;;;;41.73;30.33;;;;;;;18.87;78.90;101158.09;5059709;28;20197;-65
2021/09/12 04:31:10;;;;;;;38.27;28.27;;;;;;;19.16;77.57;101158.47;5059263;28;20518;-65
2021/09/12 04:33:35;;;;;;;38.47;29.70;;;;;;;19.04;78.21;101158.69;5058801;28;20169;-66
2021/09/12 04:36:01;;;;;;;41.50;29.90;;;;;;;18.96;78.20;101157.97;5059408;28;20495;-65
2021/09/12 04:38:26;;;;;;;39.33;30.67;;;;;;;18.92;78.74;101164.22;5058899;28;20479;-65
2021/09/12 04:40:51;;;;;;;40.43;29.70;;;;;;;19.23;77.60;101160.97;5058408;28;20529;-66
2021/09/12 04:43:17;;;;;;;43.83;31.13;;;;;;;19.01;78.26;101164.91;5058794;28;20618;-65
2021/09/12 04:45:42;;;;;;;37.70;29.17;;;;;;;18.88;78.79;101167.78;5058560;28;20292;-66
2021/09/12 04:48:07;;;;;;;37.97;29.57;;;;;;;19.30;77.29;101159.97;5058641;28;20177;-65
2021/09/12 04:50:33;;;;;;;37.33;27.30;;;;;;;19.09;77.64;101166.53;5058972;28;20450;-65
2021/09/12 04:52:58;;;;;;;36.70;27.53;;;;;;;19.12;77.65;101156.78;5058540;28;20176;-65
2021/09/12 04:55:23;;;;;;;35.40;26.90;;;;;;;19.31;77.09;101167.00;5058459;28;20166;-65
2021/09/12 04:57:49;;;;;;;34.30;27.47;;;;;;;19.38;76.29;101168.63;5058726;28;20582;-65
2021/09/12 05:00:14;;;;;;;36.10;29.87;;;;;;;19.39;76.72;101170.38;5058674;28;20177;-65
2021/09/12 05:02:39;;;;;;;35.57;29.43;;;;;;;19.10;77.16;101163.84;5058559;28;20173;-66
2021/09/12 05:05:05;;;;;;;36.43;28.20;;;;;;;19.25;77.73;101161.81;5058267;28;20243;-66
2021/09/12 05:07:30;;;;;;;37.93;30.00;;;;;;;19.32;77.33;101168.72;5058282;28;20192;-66
2021/09/12 05:09:56;;;;;;;36.07;27.70;;;;;;;19.45;76.36;101167.56;5058728;28;20401;-65
2021/09/12 05:12:21;;;;;;;35.33;27.60;;;;;;;19.05;77.78;101173.66;5058397;28;20177;-65
2021/09/12 05:14:46;;;;;;;42.17;28.77;;;;;;;19.10;77.27;101178.84;5058251;28;20173;-65
2021/09/12 05:17:12;;;;;;;36.37;26.97;;;;;;;19.28;77.44;101175.84;5058795;28;20477;-65
2021/09/12 05:19:37;;;;;;;39.63;29.87;;;;;;;19.00;77.92;101178.16;5058227;28;20185;-65
2021/09/12 05:22:02;;;;;;;38.07;26.57;;;;;;;19.27;77.05;101176.75;5058065;28;20174;-66
2021/09/12 05:24:28;;;;;;;36.90;29.27;;;;;;;19.31;76.83;101177.56;5058197;28;20186;-65
2021/09/12 05:26:53;;;;;;;40.20;29.50;;;;;;;19.24;77.26;101181.22;5057907;28;20251;-65
2021/09/12 05:29:18;;;;;;;32.97;26.63;;;;;;;19.39;77.16;101174.75;5058049;28;20492;-65
2021/09/12 05:31:44;;;;;;;38.73;27.90;;;;;;;19.35;76.68;101176.63;5058570;28;20193;-65
2021/09/12 05:34:09;;;;;;;33.37;26.97;;;;;;;19.51;76.42;101178.03;5057938;28;20205;-65
2021/09/12 05:36:35;;;;;;;40.83;28.67;;;;;;;19.29;76.53;101179.38;5058195;28;20523;-65
2021/09/12 05:39:00;;;;;;;35.27;26.40;;;;;;;19.21;77.47;101181.28;5058309;28;20515;-66
2021/09/12 05:41:25;;;;;;;34.73;27.93;;;;;;;19.32;76.96;101182.84;5058072;28;20205;-66
2021/09/12 05:43:51;;;;;;;33.43;28.03;;;;;;;19.17;77.21;101186.63;5057931;28;20514;-67
2021/09/12 05:46:16;;;;;;;34.67;28.10;;;;;;;19.44;76.98;101184.34;5058418;28;20267;-65
2021/09/12 05:48:41;;;;;;;35.60;29.10;;;;;;;19.33;76.94;101191.63;5057921;28;20522;-65
2021/09/12 05:51:06;;;;;;;38.40;30.13;;;;;;;19.29;77.37;101195.22;5057870;28;20174;-65
2021/09/12 05:53:32;;;;;;;42.77;32.67;;;;;;;19.33;77.38;101191.63;5059672;28;20208;-66
2021/09/12 05:55:58;;;;;;;40.23;32.30;;;;;;;19.40;76.91;101187.94;5061992;28;20447;-66
2021/09/12 05:58:23;;;;;;;47.10;33.67;;;;;;;19.32;77.14;101195.16;5061802;28;20613;-67
2021/09/12 06:00:49;;;;;;;39.37;29.83;;;;;;;19.32;77.43;101200.44;5062381;28;20432;-66
2021/09/12 06:03:14;;;;;;;39.20;28.37;;;;;;;19.17;78.29;101197.22;5061881;28;20170;-65
2021/09/12 06:05:39;;;;;;;38.80;29.87;;;;;;;19.53;76.35;101193.88;5061468;28;20205;-66
2021/09/12 06:08:05;;;;;;;39.97;29.20;;;;;;;19.59;76.45;101195.50;5062258;28;20170;-65
2021/09/12 06:10:30;;;;;;;37.87;27.43;;;;;;;19.55;76.15;101199.97;5044255;28;20531;-66
2021/09/12 06:12:55;;;;;;;36.63;27.07;;;;;;;19.53;75.99;101199.16;5062286;28;20532;-66
2021/09/12 06:15:21;;;;;;;36.00;28.93;;;;;;;19.52;76.33;101195.66;5061897;28;20165;-66
2021/09/12 06:17:46;;;;;;;33.97;25.93;;;;;;;19.71;75.60;101197.91;5061801;28;20523;-66
2021/09/12 06:20:12;;;;;;;35.30;26.33;;;;;;;19.67;75.49;101206.81;5061624;28;20173;-66
2021/09/12 06:22:47;;;;;;;32.73;27.77;;;;;;;19.59;76.33;101203.44;5061997;28;20176;-66
2021/09/12 06:25:13;;;;;;;37.00;26.97;;;;;;;19.66;75.90;101205.06;5061289;28;20284;-66
2021/09/12 06:27:40;;;;;;;38.63;29.30;;;;;;;19.88;75.31;101194.94;5061388;28;20459;-66
2021/09/12 06:30:08;;;;;;;34.73;26.93;;;;;;;19.58;76.40;101206.97;5061243;28;20419;-65
2021/09/12 06:32:33;;;;;;;39.20;29.70;;;;;;;19.61;76.43;101204.31;5061330;28;20805;-66
2021/09/12 06:34:58;;;;;;;34.80;27.27;;;;;;;19.64;75.89;101204.22;5061600;28;20416;-66
2021/09/12 06:37:24;;;;;;;33.00;25.60;;;;;;;19.37;77.57;101203.88;5061219;28;20234;-66
2021/09/12 06:39:49;;;;;;;32.93;26.90;;;;;;;19.74;75.61;101200.50;5061219;28;20472;-68
2021/09/12 06:42:14;;;;;;;37.10;27.47;;;;;;;19.89;75.23;101201.09;5061609;28;20181;-67
2021/09/12 06:44:40;;;;;;;33.50;25.50;;;;;;;19.88;75.12;101197.59;5060883;28;20189;-66
2021/09/12 06:47:07;;;;;;;33.60;25.97;;;;;;;19.91;75.40;101196.66;5061011;28;20209;-66
2021/09/12 06:49:33;;;;;;;31.23;25.80;;;;;;;19.98;75.01;101191.16;5061396;28;20519;-66
2021/09/12 06:52:00;;;;;;;40.20;25.17;;;;;;;19.62;75.75;101198.09;5061035;28;20415;-67
2021/09/12 06:54:25;;;;;;;30.50;24.80;;;;;;;19.79;75.61;101198.59;5060744;28;20174;-66
2021/09/12 06:56:50;;;;;;;31.97;25.47;;;;;;;20.04;74.77;101195.47;5061445;28;20419;-68
2021/09/12 06:59:16;;;;;;;33.00;25.63;;;;;;;19.98;74.93;101195.59;5059644;28;20221;-66
2021/09/12 07:01:41;;;;;;;31.43;25.43;;;;;;;20.20;73.76;101190.66;5059518;28;20176;-66
2021/09/12 07:04:06;;;;;;;34.07;26.17;;;;;;;19.89;74.50;101199.31;5060716;28;20535;-66
2021/09/12 07:06:32;;;;;;;31.33;25.00;;;;;;;20.14;74.03;101194.34;5063574;28;20430;-68
2021/09/12 07:08:57;;;;;;;27.30;22.50;;;;;;;20.15;74.39;101192.56;5063405;28;20199;-67
2021/09/12 07:11:22;;;;;;;28.70;23.70;;;;;;;20.19;73.71;101199.53;5061981;28;20177;-66
2021/09/12 07:13:48;;;;;;;26.90;23.03;;;;;;;20.11;73.59;101199.72;5060268;28;20174;-66
2021/09/12 07:16:13;;;;;;;31.50;24.93;;;;;;;20.58;72.35;101195.97;5059417;28;20178;-66
2021/09/12 07:18:39;;;;;;;28.00;23.57;;;;;;;20.28;73.02;101193.16;5059795;28;20192;-66
2021/09/12 07:21:04;;;;;;;27.47;21.90;;;;;;;20.12;73.92;101198.81;5059398;28;20253;-65
2021/09/12 07:23:29;;;;;;;26.60;22.80;;;;;;;19.96;74.89;101197.41;5058982;28;20196;-66
2021/09/12 07:25:55;;;;;;;28.37;22.83;;;;;;;19.98;74.28;101198.25;5059740;28;20194;-66
2021/09/12 07:28:21;;;;;;;26.73;21.90;;;;;;;20.45;72.61;101193.63;5059189;28;20203;-68
2021/09/12 07:30:46;;;;;;;22.43;20.03;;;;;;;20.45;72.43;101198.91;5059243;28;20462;-66
2021/09/12 07:33:11;;;;;;;30.23;21.53;;;;;;;20.36;73.25;101191.19;5059537;28;20173;-67
2021/09/12 07:35:37;;;;;;;26.93;23.00;;;;;;;19.62;75.09;101209.56;5058885;28;20535;-66
2021/09/12 07:38:02;;;;;;;27.30;22.20;;;;;;;20.21;73.46;101202.16;5058994;28;20177;-67
2021/09/12 07:40:27;;;;;;;25.63;21.00;;;;;;;19.87;73.99;101205.56;5059492;28;20165;-67
2021/09/12 07:42:53;;;;;;;25.47;21.43;;;;;;;20.32;72.49;101200.09;5059165;28;20177;-66
2021/09/12 07:45:18;;;;;;;24.57;21.87;;;;;;;20.25;72.73;101199.38;5058764;28;20166;-66
2021/09/12 07:47:43;;;;;;;27.53;22.60;;;;;;;19.87;73.71;101206.41;5059434;28;20161;-67
2021/09/12 07:50:09;;;;;;;26.07;21.00;;;;;;;19.85;74.42;101202.94;5058805;28;20188;-66
2021/09/12 07:52:36;;;;;;;29.70;22.03;;;;;;;20.03;74.47;101210.47;5058718;28;20169;-66
2021/09/12 07:55:01;;;;;;;24.93;21.10;;;;;;;20.37;72.78;101195.59;5059210;28;20180;-66
2021/09/12 07:57:26;;;;;;;23.20;20.70;;;;;;;20.33;73.04;101201.84;5020567;28;1071204;-66
2021/09/12 07:59:52;;;;;;;31.70;22.63;;;;;;;20.52;72.26;101197.84;5059601;28;20178;-65
2021/09/12 08:02:17;;;;;;;25.80;20.37;;;;;;;20.31;72.45;101208.94;5060125;28;20438;-66
2021/09/12 08:04:42;;;;;;;25.00;22.03;;;;;;;20.34;73.01;101203.59;5058562;28;20181;-66
2021/09/12 08:07:08;;;;;;;26.10;21.10;;;;;;;20.19;73.40;101215.44;5059244;28;20222;-66
2021/09/12 08:09:33;;;;;;;28.33;21.87;;;;;;;20.35;72.50;101208.88;5059957;28;20181;-67
2021/09/12 08:11:58;;;;;;;30.20;21.90;;;;;;;20.47;72.12;101215.66;5059302;28;20174;-67
2021/09/12 08:14:23;;;;;;;24.57;20.43;;;;;;;20.37;73.27;101214.13;5059280;28;20170;-66
2021/09/12 08:16:49;;;;;;;27.80;21.57;;;;;;;20.35;72.43;101223.88;5059206;28;20539;-66
2021/09/12 08:19:14;;;;;;;31.50;24.70;;;;;;;20.49;72.24;101220.91;5059381;28;20256;-66
2021/09/12 08:21:39;;;;;;;29.27;21.87;;;;;;;20.73;71.14;101222.13;5059254;28;20311;-66
2021/09/12 08:24:05;;;;;;;24.10;19.90;;;;;;;20.94;71.13;101219.81;5059633;28;20585;-66
2021/09/12 08:26:31;;;;;;;28.53;22.57;;;;;;;21.06;70.32;101227.44;5058932;28;20212;-66
2021/09/12 08:28:56;;;;;;;27.60;21.40;;;;;;;21.26;69.33;101218.97;5059250;28;20173;-66
2021/09/12 08:31:21;;;;;;;24.97;21.13;;;;;;;21.65;68.15;101213.47;5059469;28;20170;-66
2021/09/12 08:33:47;;;;;;;24.80;20.23;;;;;;;21.40;68.69;101213.28;5058794;28;20173;-67
2021/09/12 08:36:12;;;;;;;24.70;19.90;;;;;;;21.14;69.28;101217.50;5058973;28;20429;-66
2021/09/12 08:38:37;;;;;;;23.40;20.23;;;;;;;21.75;67.43;101214.06;5059688;28;20414;-67
2021/09/12 08:41:03;;;;;;;23.27;19.60;;;;;;;21.09;68.88;101218.56;5059105;28;20188;-66
2021/09/12 08:43:30;;;;;;;24.60;18.83;;;;;;;21.83;67.04;101222.69;5058085;28;20480;-67
2021/09/12 08:45:55;;;;;;;25.83;19.50;;;;;;;21.87;67.04;101218.16;5059150;28;20190;-66
2021/09/12 08:48:20;;;;;;;22.37;19.80;;;;;;;21.39;67.64;101219.47;5058686;28;20450;-67
2021/09/12 08:50:46;;;;;;;22.57;18.07;;;;;;;21.79;66.90;101214.88;5058806;28;20181;-66
2021/09/12 08:53:11;;;;;;;21.20;18.83;;;;;;;21.58;67.69;101211.94;5059021;28;20175;-66
2021/09/12 08:55:37;;;;;;;22.40;19.40;;;;;;;21.40;69.19;101217.72;5058565;28;20583;-65
2021/09/12 08:58:04;;;;;;;25.93;21.20;;;;;;;21.19;69.70;101226.22;5058707;28;20455;-64
2021/09/12 09:00:29;;;;;;;23.10;20.37;;;;;;;20.88;70.41;101231.47;5059135;28;20177;-66
2021/09/12 09:03:02;;;;;;;23.90;20.83;;;;;;;20.63;72.42;101223.22;5058748;28;20415;-66
2021/09/12 09:05:37;;;;;;;23.90;20.00;;;;;;;19.97;74.21;101238.84;5060601;28;20258;-65
2021/09/12 09:08:18;;;;;;;27.63;20.30;;;;;;;20.62;72.85;101226.75;5060203;28;20447;-65
2021/09/12 09:10:51;;;;;;;22.67;20.20;;;;;;;20.94;71.58;101231.28;5058731;28;20748;-65
2021/09/12 09:13:35;;;;;;;25.63;19.73;;;;;;;21.70;68.88;101229.25;5058324;28;20840;-65
2021/09/12 09:16:06;;;;;;;26.63;19.67;;;;;;;21.51;69.54;101227.13;5058939;28;20416;-65
2021/09/12 09:18:33;;;;;;;25.27;20.83;;;;;;;21.29;69.71;101232.13;5059379;28;20481;-68
2021/09/12 09:20:59;;;;;;;22.90;19.10;;;;;;;21.12;69.91;101229.06;5058388;28;20694;-67
2021/09/12 09:23:24;;;;;;;23.77;17.97;;;;;;;20.86;71.92;101233.25;5058732;28;20667;-66
2021/09/12 09:25:52;;;;;;;24.73;18.00;;;;;;;21.67;68.69;101232.00;5058274;28;20475;-65
2021/09/12 09:28:19;;;;;;;22.07;18.17;;;;;;;21.60;68.35;101241.06;5056534;28;20176;-65
2021/09/12 09:30:51;;;;;;;20.40;18.00;;;;;;;21.13;69.81;101242.28;5058418;28;20408;-65
2021/09/12 09:33:28;;;;;;;22.10;18.27;;;;;;;21.00;69.82;101240.88;5058494;28;20408;-65
2021/09/12 09:36:06;;;;;;;23.70;18.10;;;;;;;20.78;70.46;101241.44;5058948;28;20426;-65
2021/09/12 09:38:34;;;;;;;19.60;16.90;;;;;;;21.27;69.28;101243.69;5058139;28;20411;-66
2021/09/12 09:41:09;;;;;;;18.30;16.43;;;;;;;21.13;69.02;101250.22;5058038;28;20491;-64
2021/09/12 09:43:37;;;;;;;22.23;17.00;;;;;;;;;;5057712;28;20430;-65
2021/09/12 09:46:02;;;;;;;22.00;17.03;;;;;;;20.63;70.24;101249.69;5057797;28;20546;-65
2021/09/12 09:48:34;;;;;;;19.17;16.80;;;;;;;20.57;70.74;101261.31;5060465;28;20503;-65
2021/09/12 09:51:04;;;;;;;18.67;16.60;;;;;;;20.75;70.31;101248.56;5062973;28;20165;-66
2021/09/12 09:53:35;;;;;;;19.13;16.80;;;;;;;20.79;68.91;101259.03;5059877;28;20436;-66
2021/09/12 09:56:02;;;;;;;18.47;16.50;;;;;;;20.48;70.04;101259.75;5058231;28;20449;-64
2021/09/12 09:58:30;;;;;;;18.20;16.17;;;;;;;20.83;68.85;101260.72;5058010;28;20467;-65
2021/09/12 10:00:55;;;;;;;18.67;15.70;;;;;;;21.01;68.73;101258.50;5057035;28;20733;-65
2021/09/12 10:03:21;;;;;;;17.60;15.77;;;;;;;21.60;66.44;101247.22;5057243;28;20420;-65
2021/09/12 10:05:46;;;;;;;16.90;14.60;;;;;;;21.90;64.73;101241.09;5056937;28;20208;-65
2021/09/12 10:08:12;;;;;;;17.87;14.10;;;;;;;22.75;62.56;101241.97;5057652;28;20178;-65
2021/09/12 10:10:38;;;;;;;17.57;13.93;;;;;;;22.99;61.21;101250.06;5058295;28;20176;-65
2021/09/12 10:13:04;;;;;;;14.50;12.90;;;;;;;22.54;62.40;101247.09;5057709;28;20416;-65
2021/09/12 10:15:32;;;;;;;16.30;13.57;;;;;;;22.39;63.15;101252.03;5056776;28;20542;-66
2021/09/12 10:17:58;;;;;;;15.57;12.80;;;;;;;22.24;63.20;101254.19;5057436;28;20800;-66
2021/09/12 10:20:28;;;;;;;15.17;13.67;;;;;;;22.24;63.51;101248.03;5056817;28;20416;-65
2021/09/12 10:22:54;;;;;;;16.93;13.93;;;;;;;21.87;65.12;101250.88;5057520;28;20568;-65
2021/09/12 10:25:23;;;;;;;16.00;14.30;;;;;;;21.35;66.17;101252.31;5057764;28;20423;-65
2021/09/12 10:28:03;;;;;;;17.03;14.00;;;;;;;21.36;66.20;101248.75;5057599;28;20420;-66
2021/09/12 10:30:37;;;;;;;22.40;14.90;;;;;;;22.09;64.87;101242.25;5057601;28;20415;-65
2021/09/12 10:33:05;;;;;;;16.63;14.13;;;;;;;23.12;61.67;101237.19;5057542;28;20431;-65
2021/09/12 10:35:49;;;;;;;14.10;12.70;;;;;;;24.04;58.74;101233.88;5057368;28;20505;-65
2021/09/12 10:38:24;;;;;;;18.30;13.30;;;;;;;23.76;58.77;101238.47;5057424;28;20423;-66
2021/09/12 10:40:49;;;;;;;13.00;11.63;;;;;;;25.04;55.40;101228.06;5060699;28;20715;-66
2021/09/12 10:43:23;;;;;;;12.20;11.00;;;;;;;25.50;54.09;101228.69;5061277;28;20569;-65
2021/09/12 10:45:49;;;;;;;14.03;11.50;;;;;;;26.10;52.01;101222.44;5061126;28;20186;-66
2021/09/12 10:48:20;;;;;;;11.97;10.87;;;;;;;25.50;52.63;101220.69;5061423;28;20404;-66
2021/09/12 10:50:46;;;;;;;12.73;11.50;;;;;;;25.28;53.24;101223.44;5061046;28;20186;-66
2021/09/12 10:53:11;;;;;;;11.90;10.70;;;;;;;25.25;53.73;101215.59;5060865;28;20706;-66
2021/09/12 10:56:01;;;;;;;11.97;10.60;;;;;;;23.74;56.98;101227.88;5061075;28;20170;-65
2021/09/12 10:58:28;;;;;;;13.53;10.57;;;;;;;23.62;58.33;101236.31;5057898;28;20232;-66
2021/09/12 11:00:55;;;;;;;13.17;11.20;;;;;;;23.09;59.98;101232.00;5060979;28;20562;-66
2021/09/12 11:03:20;;;;;;;13.67;12.20;;;;;;;22.72;61.70;101242.09;5060720;28;20644;-66
2021/09/12 11:05:46;;;;;;;12.97;11.57;;;;;;;22.09;63.50;101233.44;5060708;28;20471;-67